createdAt,value
2022-11-15T00:01:51.925Z,5.96
2022-11-15T00:04:23.794Z,5.98
2022-11-15T00:06:55.409Z,6.07
2022-11-15T00:09:26.978Z,6.12
2022-11-15T00:11:58.490Z,6.09
2022-11-15T00:14:30.082Z,6.13
2022-11-15T00:17:01.575Z,6.15
2022-11-15T00:19:33.453Z,6.10
2022-11-15T00:22:05.073Z,5.96
2022-11-15T00:24:36.596Z,5.79
2022-11-15T00:27:08.411Z,5.76
2022-11-15T00:29:44.158Z,5.76
2022-11-15T00:32:15.886Z,5.81
2022-11-15T00:34:47.522Z,5.84
2022-11-15T00:37:19.053Z,5.85
2022-11-15T00:39:50.550Z,5.81
2022-11-15T00:42:22.087Z,5.80
2022-11-15T00:44:53.682Z,5.80
2022-11-15T00:47:25.211Z,5.77
2022-11-15T00:49:56.765Z,5.71
2022-11-15T00:52:28.264Z,5.66
2022-11-15T00:54:59.782Z,5.65
2022-11-15T00:57:31.334Z,5.68
2022-11-15T01:00:02.850Z,5.74
2022-11-15T01:02:34.732Z,5.77
2022-11-15T01:05:07.755Z,5.82
2022-11-15T01:07:39.330Z,5.83
2022-11-15T01:10:12.446Z,5.78
2022-11-15T01:12:43.932Z,5.74
2022-11-15T01:15:15.633Z,5.76
2022-11-15T01:17:47.319Z,5.73
2022-11-15T01:20:19.854Z,5.68
2022-11-15T01:22:51.358Z,5.61
2022-11-15T01:25:22.855Z,5.58
2022-11-15T01:27:56.395Z,5.63
2022-11-15T01:30:28.128Z,5.66
2022-11-15T01:32:59.735Z,5.65
2022-11-15T01:35:31.270Z,5.58
2022-11-15T01:38:02.810Z,5.56
2022-11-15T01:40:34.372Z,5.54
2022-11-15T01:43:22.664Z,5.48
2022-11-15T01:45:59.088Z,5.38
2022-11-15T01:48:35.352Z,5.29
2022-11-15T01:51:13.744Z,5.29
2022-11-15T01:53:49.318Z,5.32
2022-11-15T01:56:25.203Z,5.30
2022-11-15T01:59:00.030Z,5.24
2022-11-15T02:01:32.686Z,5.11
2022-11-15T02:04:08.856Z,5.02
2022-11-15T02:06:41.957Z,5.03
2022-11-15T02:09:15.061Z,5.06
2022-11-15T02:11:48.447Z,5.07
2022-11-15T02:14:23.371Z,5.01
2022-11-15T02:17:06.095Z,4.95
2022-11-15T02:20:07.376Z,4.96
2022-11-15T02:22:50.883Z,4.98
2022-11-15T02:25:41.389Z,4.98
2022-11-15T02:28:42.613Z,4.92
2022-11-15T02:31:23.094Z,4.90
2022-11-15T02:34:02.171Z,4.95
2022-11-15T02:36:42.992Z,4.99
2022-11-15T02:39:22.163Z,4.95
2022-11-15T02:41:57.483Z,4.97
2022-11-15T02:44:35.374Z,4.98
2022-11-15T02:47:17.316Z,5.03
2022-11-15T02:49:52.235Z,5.10
2022-11-15T02:52:27.082Z,5.12
2022-11-15T02:55:00.244Z,5.11
2022-11-15T02:57:45.748Z,5.12
2022-11-15T03:00:20.034Z,5.12
2022-11-15T03:03:23.446Z,5.07
2022-11-15T03:06:04.946Z,4.96
2022-11-15T03:08:49.291Z,4.95
2022-11-15T03:11:23.671Z,4.98
2022-11-15T03:14:00.244Z,4.95
2022-11-15T03:16:36.491Z,4.97
2022-11-15T03:19:14.172Z,4.97
2022-11-15T03:21:48.090Z,4.95
2022-11-15T03:24:25.994Z,4.91
2022-11-15T03:27:01.410Z,4.87
2022-11-15T03:29:36.574Z,4.82
2022-11-15T03:32:13.352Z,4.80
2022-11-15T03:34:48.842Z,4.82
2022-11-15T03:37:23.213Z,4.77
2022-11-15T03:39:54.971Z,4.81
2022-11-15T03:42:32.777Z,4.79
2022-11-15T03:45:13.032Z,4.80
2022-11-15T03:47:47.462Z,4.80
2022-11-15T03:50:22.028Z,4.76
2022-11-15T03:52:56.437Z,4.72
2022-11-15T03:55:27.977Z,4.66
2022-11-15T03:58:01.804Z,4.61
2022-11-15T04:00:33.338Z,4.63
2022-11-15T04:03:04.849Z,4.66
2022-11-15T04:05:36.342Z,4.73
2022-11-15T04:08:08.186Z,4.77
2022-11-15T04:10:41.192Z,4.78
2022-11-15T04:13:12.720Z,4.77
2022-11-15T04:15:44.403Z,4.71
2022-11-15T04:18:15.987Z,4.70
2022-11-15T04:21:05.393Z,4.71
2022-11-15T04:24:03.031Z,4.76
2022-11-15T04:26:34.769Z,4.80
2022-11-15T04:29:24.265Z,4.82
2022-11-15T04:31:55.754Z,4.84
2022-11-15T04:34:27.292Z,4.82
2022-11-15T04:37:17.005Z,4.85
2022-11-15T04:39:48.562Z,4.88
2022-11-15T04:42:20.135Z,4.88
2022-11-15T04:44:51.649Z,4.87
2022-11-15T04:47:23.161Z,4.87
2022-11-15T04:49:54.668Z,4.91
2022-11-15T04:52:26.214Z,4.92
2022-11-15T04:54:57.798Z,4.96
2022-11-15T04:57:29.273Z,4.98
2022-11-15T05:00:00.910Z,4.93
2022-11-15T05:02:52.420Z,4.92
2022-11-15T05:05:23.922Z,4.90
2022-11-15T05:07:55.448Z,4.89
2022-11-15T05:10:26.999Z,4.92
2022-11-15T05:12:58.799Z,4.88
2022-11-15T05:15:30.432Z,4.83
2022-11-15T05:18:02.777Z,4.84
2022-11-15T05:20:34.503Z,4.79
2022-11-15T05:23:06.507Z,4.79
2022-11-15T05:25:39.488Z,4.87
2022-11-15T05:28:10.997Z,4.90
2022-11-15T05:30:42.605Z,4.87
2022-11-15T05:33:14.486Z,4.86
2022-11-15T05:35:49.104Z,4.90
2022-11-15T05:38:20.811Z,4.85
2022-11-15T05:40:52.714Z,4.86
2022-11-15T05:43:25.086Z,4.86
2022-11-15T05:45:56.975Z,4.88
2022-11-15T05:48:29.315Z,4.88
2022-11-15T05:51:02.058Z,4.89
2022-11-15T05:53:34.553Z,4.89
2022-11-15T05:56:07.711Z,4.92
2022-11-15T05:58:40.033Z,4.92
2022-11-15T06:01:12.121Z,4.95
2022-11-15T06:03:43.814Z,4.99
2022-11-15T06:06:16.571Z,5.04
2022-11-15T06:08:48.799Z,5.14
2022-11-15T06:11:20.348Z,5.17
2022-11-15T06:13:51.888Z,5.17
2022-11-15T06:16:23.475Z,5.18
2022-11-15T06:18:55.010Z,5.15
2022-11-15T06:21:28.909Z,5.11
2022-11-15T06:24:00.473Z,5.00
2022-11-15T06:26:32.035Z,4.92
2022-11-15T06:29:04.126Z,4.90
2022-11-15T06:31:37.021Z,4.84
2022-11-15T06:34:08.630Z,4.81
2022-11-15T06:36:40.304Z,4.90
2022-11-15T06:39:11.919Z,4.97
2022-11-15T06:41:43.511Z,5.00
2022-11-15T06:44:15.109Z,5.04
2022-11-15T06:46:46.663Z,5.05
2022-11-15T06:49:18.679Z,5.01
2022-11-15T06:51:50.344Z,4.98
2022-11-15T06:54:22.485Z,4.99
2022-11-15T06:56:53.989Z,5.04
2022-11-15T06:59:25.626Z,5.05
2022-11-15T07:01:57.286Z,5.04
2022-11-15T07:04:28.943Z,5.05
2022-11-15T07:07:00.584Z,5.14
2022-11-15T07:09:32.222Z,5.20
2022-11-15T07:12:07.659Z,5.27
2022-11-15T07:14:39.815Z,5.31
2022-11-15T07:17:11.365Z,5.31
2022-11-15T07:19:43.878Z,5.31
2022-11-15T07:22:15.570Z,5.28
2022-11-15T07:24:47.057Z,5.27
2022-11-15T07:27:18.574Z,5.29
2022-11-15T07:29:50.354Z,5.27
2022-11-15T07:32:21.898Z,5.24
2022-11-15T07:34:53.452Z,5.23
2022-11-15T07:37:25.103Z,5.26
2022-11-15T07:39:56.630Z,5.31
2022-11-15T07:42:45.623Z,5.39
2022-11-15T07:45:18.457Z,5.50
2022-11-15T07:47:51.227Z,5.56
2022-11-15T07:50:23.553Z,5.67
2022-11-15T07:52:59.407Z,5.78
2022-11-15T07:55:31.502Z,5.80
2022-11-15T07:58:07.652Z,5.84
2022-11-15T08:00:40.123Z,5.87
2022-11-15T08:03:13.588Z,5.82
2022-11-15T08:05:51.742Z,5.75
2022-11-15T08:08:24.290Z,5.73
2022-11-15T08:10:55.956Z,5.79
2022-11-15T08:13:27.610Z,5.86
2022-11-15T08:16:02.951Z,5.96
2022-11-15T08:18:34.597Z,6.09
2022-11-15T08:21:07.160Z,6.20
2022-11-15T08:23:38.899Z,6.30
2022-11-15T08:26:10.824Z,6.35
2022-11-15T08:28:43.777Z,6.47
2022-11-15T08:31:19.783Z,6.54
2022-11-15T08:33:51.338Z,6.57
2022-11-15T08:36:23.053Z,6.58
2022-11-15T08:38:54.590Z,6.62
2022-11-15T08:41:30.261Z,6.70
2022-11-15T08:44:01.745Z,6.77
2022-11-15T08:46:33.290Z,6.81
2022-11-15T08:49:04.862Z,6.90
2022-11-15T08:51:36.426Z,7.10
2022-11-15T08:54:08.052Z,7.31
2022-11-15T08:56:39.590Z,7.54
2022-11-15T08:59:11.410Z,7.75
2022-11-15T09:01:43.041Z,8.01
2022-11-15T09:04:14.691Z,8.24
2022-11-15T09:06:46.217Z,8.45
2022-11-15T09:09:17.786Z,8.67
2022-11-15T09:11:49.911Z,8.95
2022-11-15T09:14:21.414Z,9.28
2022-11-15T09:16:53.413Z,9.56
2022-11-15T09:19:25.109Z,9.79
2022-11-15T09:21:56.836Z,9.90
2022-11-15T09:24:28.403Z,9.88
2022-11-15T09:26:59.982Z,9.88
2022-11-15T09:29:31.761Z,9.87
2022-11-15T09:32:03.411Z,9.90
2022-11-15T09:34:34.960Z,9.92
2022-11-15T09:37:06.458Z,9.93
2022-11-15T09:39:37.976Z,9.94
2022-11-15T09:42:29.172Z,10.03
2022-11-15T09:45:16.966Z,10.15
2022-11-15T09:48:19.729Z,10.27
2022-11-15T09:50:54.810Z,10.38
2022-11-15T09:54:13.715Z,10.43
2022-11-15T09:56:31.512Z,10.47
2022-11-15T09:59:19.155Z,10.42
2022-11-15T10:02:02.210Z,10.45
2022-11-15T10:04:35.000Z,10.74
2022-11-15T10:07:14.995Z,11.27
2022-11-15T10:09:53.781Z,11.96
2022-11-15T10:12:26.082Z,12.69
2022-11-15T10:15:02.515Z,13.19
2022-11-15T10:17:58.002Z,13.27
2022-11-15T10:20:31.175Z,13.12
2022-11-15T10:23:08.294Z,13.02
2022-11-15T10:25:39.948Z,12.98
2022-11-15T10:28:18.065Z,12.92
2022-11-15T10:30:51.735Z,13.05
2022-11-15T10:33:29.177Z,13.48
2022-11-15T10:36:18.225Z,14.08
2022-11-15T10:38:57.737Z,14.66
2022-11-15T10:41:40.183Z,15.32
2022-11-15T10:44:22.490Z,15.94
2022-11-15T10:47:21.345Z,16.59
2022-11-15T10:50:09.329Z,17.12
2022-11-15T10:52:49.807Z,16.97
2022-11-15T10:55:31.000Z,16.69
2022-11-15T10:58:08.572Z,16.36
2022-11-15T11:00:41.206Z,16.06
2022-11-15T11:03:31.647Z,15.79
2022-11-15T11:06:12.343Z,15.56
2022-11-15T11:08:55.697Z,15.59
2022-11-15T11:11:42.147Z,15.66
2022-11-15T11:14:21.847Z,15.61
2022-11-15T11:16:55.739Z,15.69
2022-11-15T11:19:41.530Z,15.87
2022-11-15T11:22:21.976Z,16.45
2022-11-15T11:25:06.542Z,17.06
2022-11-15T11:27:55.756Z,17.65
2022-11-15T11:30:35.189Z,18.21
2022-11-15T11:33:14.847Z,18.64
2022-11-15T11:35:56.328Z,18.94
2022-11-15T11:38:45.976Z,18.93
2022-11-15T11:41:29.124Z,18.72
2022-11-15T11:44:10.618Z,18.28
2022-11-15T11:46:55.169Z,17.83
2022-11-15T11:49:31.885Z,17.32
2022-11-15T11:52:10.698Z,16.87
2022-11-15T11:54:51.936Z,16.43
2022-11-15T11:57:35.152Z,16.04
2022-11-15T12:00:16.365Z,15.78
2022-11-15T12:02:54.714Z,15.51
2022-11-15T12:05:35.003Z,15.34
2022-11-15T12:08:17.824Z,15.29
2022-11-15T12:10:54.221Z,15.30
2022-11-15T12:13:28.880Z,15.39
2022-11-15T12:16:09.222Z,15.36
2022-11-15T12:18:44.398Z,15.25
2022-11-15T12:21:28.498Z,15.14
2022-11-15T12:24:06.802Z,15.01
2022-11-15T12:26:43.465Z,14.86
2022-11-15T12:29:21.996Z,14.69
2022-11-15T12:31:59.215Z,14.56
2022-11-15T12:34:47.638Z,14.47
2022-11-15T12:37:53.336Z,14.30
2022-11-15T12:40:36.772Z,14.15
2022-11-15T12:43:40.924Z,13.97
2022-11-15T12:46:22.543Z,13.83
2022-11-15T12:49:00.320Z,13.75
2022-11-15T12:52:08.831Z,13.65
2022-11-15T12:55:05.445Z,13.58
2022-11-15T12:57:54.020Z,13.52
2022-11-15T13:00:48.518Z,13.47
2022-11-15T13:03:28.886Z,13.38
2022-11-15T13:06:18.986Z,13.30
2022-11-15T13:08:53.893Z,13.19
2022-11-15T13:11:57.102Z,13.11
2022-11-15T13:14:52.242Z,13.05
2022-11-15T13:17:47.149Z,13.01
2022-11-15T13:20:33.303Z,12.99
2022-11-15T13:23:12.227Z,12.97
2022-11-15T13:26:21.836Z,12.95
2022-11-15T13:28:56.482Z,12.95
2022-11-15T13:31:32.417Z,12.97
2022-11-15T13:34:44.089Z,12.97
2022-11-15T13:37:29.038Z,12.96
2022-11-15T13:40:20.653Z,12.91
2022-11-15T13:42:52.626Z,12.88
2022-11-15T13:45:24.908Z,12.82
2022-11-15T13:47:58.537Z,12.77
2022-11-15T13:50:40.015Z,12.71
2022-11-15T13:53:13.693Z,12.64
2022-11-15T13:55:43.892Z,12.57
2022-11-15T13:58:17.874Z,12.53
2022-11-15T14:01:03.116Z,12.49
2022-11-15T14:03:38.075Z,12.46
2022-11-15T14:06:15.294Z,12.41
2022-11-15T14:09:03.959Z,12.37
2022-11-15T14:11:35.577Z,12.31
2022-11-15T14:14:16.816Z,12.22
2022-11-15T14:16:50.059Z,12.15
2022-11-15T14:19:39.721Z,12.10
2022-11-15T14:22:29.407Z,12.06
2022-11-15T14:25:22.409Z,12.05
2022-11-15T14:28:16.337Z,12.05
2022-11-15T14:30:51.278Z,12.00
2022-11-15T14:33:26.022Z,11.94
2022-11-15T14:35:58.739Z,11.91
2022-11-15T14:38:31.229Z,11.88
2022-11-15T14:41:03.050Z,11.83
2022-11-15T14:43:34.814Z,11.80
2022-11-15T14:46:06.706Z,11.78
2022-11-15T14:48:39.094Z,11.74
2022-11-15T14:51:16.427Z,11.68
2022-11-15T14:53:48.953Z,11.60
2022-11-15T14:56:20.577Z,11.51
2022-11-15T14:58:52.130Z,11.40
2022-11-15T15:01:26.009Z,11.33
2022-11-15T15:03:59.241Z,11.25
2022-11-15T15:06:31.743Z,11.19
2022-11-15T15:09:03.394Z,11.15
2022-11-15T15:11:35.202Z,11.09
2022-11-15T15:14:06.746Z,11.05
2022-11-15T15:16:38.975Z,11.02
2022-11-15T15:19:10.573Z,10.99
2022-11-15T15:21:42.376Z,10.98
2022-11-15T15:24:17.197Z,10.94
2022-11-15T15:26:49.215Z,10.88
2022-11-15T15:29:20.759Z,10.82
2022-11-15T15:31:52.405Z,10.78
2022-11-15T15:34:24.212Z,10.70
2022-11-15T15:37:10.300Z,10.60
2022-11-15T15:39:41.946Z,10.54
2022-11-15T15:42:13.462Z,10.52
2022-11-15T15:44:46.129Z,10.54
2022-11-15T15:47:21.203Z,10.58
2022-11-15T15:49:53.729Z,10.59
2022-11-15T15:52:26.051Z,10.55
2022-11-15T15:54:57.578Z,10.55
2022-11-15T15:57:29.132Z,10.58
2022-11-15T16:00:00.691Z,10.58
2022-11-15T16:02:36.225Z,10.59
2022-11-15T16:05:12.477Z,10.58
2022-11-15T16:07:45.194Z,10.57
2022-11-15T16:10:28.234Z,10.56
2022-11-15T16:13:00.621Z,10.53
2022-11-15T16:15:34.169Z,10.49
2022-11-15T16:18:08.660Z,10.46
2022-11-15T16:20:43.345Z,10.42
2022-11-15T16:23:16.908Z,10.43
2022-11-15T16:25:51.409Z,10.47
2022-11-15T16:28:25.093Z,10.46
2022-11-15T16:31:02.993Z,10.35
2022-11-15T16:33:35.228Z,10.31
2022-11-15T16:36:09.030Z,10.25
2022-11-15T16:38:40.821Z,10.20
2022-11-15T16:41:12.339Z,10.12
2022-11-15T16:43:43.965Z,10.05
2022-11-15T16:46:20.006Z,10.10
2022-11-15T16:48:52.122Z,10.17
2022-11-15T16:51:24.096Z,10.20
2022-11-15T16:53:55.725Z,10.25
2022-11-15T16:56:30.063Z,10.29
2022-11-15T16:59:02.926Z,10.20
2022-11-15T17:01:36.553Z,10.15
2022-11-15T17:04:12.818Z,10.14
2022-11-15T17:06:46.126Z,10.08
2022-11-15T17:09:21.301Z,10.02
2022-11-15T17:11:54.106Z,9.94
2022-11-15T17:14:25.753Z,9.87
2022-11-15T17:16:57.315Z,9.79
2022-11-15T17:19:28.853Z,9.75
2022-11-15T17:22:00.807Z,9.75
2022-11-15T17:24:32.606Z,9.75
2022-11-15T17:27:04.283Z,9.78
2022-11-15T17:29:35.806Z,9.81
2022-11-15T17:32:07.482Z,9.82
2022-11-15T17:34:39.147Z,9.84
2022-11-15T17:37:10.630Z,9.79
2022-11-15T17:39:42.303Z,9.75
2022-11-15T17:42:13.804Z,9.69
2022-11-15T17:44:45.381Z,9.66
2022-11-15T17:47:16.942Z,9.67
2022-11-15T17:49:48.738Z,9.65
2022-11-15T17:52:20.249Z,9.62
2022-11-15T17:54:51.827Z,9.58
2022-11-15T17:57:23.377Z,9.58
2022-11-15T17:59:54.973Z,9.62
2022-11-15T18:02:26.537Z,9.65
2022-11-15T18:04:58.121Z,9.67
2022-11-15T18:07:29.715Z,9.65
2022-11-15T18:10:01.356Z,9.56
2022-11-15T18:12:32.887Z,9.53
2022-11-15T18:15:04.845Z,9.47
2022-11-15T18:17:37.388Z,9.44
2022-11-15T18:20:11.060Z,9.41
2022-11-15T18:22:41.049Z,9.40
2022-11-15T18:25:15.858Z,9.43
2022-11-15T18:27:48.538Z,9.46
2022-11-15T18:30:20.578Z,9.53
2022-11-15T18:32:55.006Z,9.53
2022-11-15T18:35:26.749Z,9.57
2022-11-15T18:37:58.380Z,9.63
2022-11-15T18:40:30.246Z,9.70
2022-11-15T18:43:01.743Z,9.71
2022-11-15T18:45:34.773Z,9.67
2022-11-15T18:48:07.114Z,9.62
2022-11-15T18:50:38.638Z,9.61
2022-11-15T18:53:10.145Z,9.63
2022-11-15T18:55:41.663Z,9.63
2022-11-15T18:58:13.174Z,9.62
2022-11-15T19:00:44.797Z,9.63
2022-11-15T19:03:20.455Z,9.61
2022-11-15T19:06:01.435Z,9.64
2022-11-15T19:08:35.611Z,9.66
2022-11-15T19:11:09.727Z,9.69
2022-11-15T19:13:42.048Z,9.64
2022-11-15T19:16:16.098Z,9.59
2022-11-15T19:18:47.703Z,9.59
2022-11-15T19:21:31.034Z,9.61
2022-11-15T19:24:03.494Z,9.61
2022-11-15T19:26:36.898Z,9.64
2022-11-15T19:29:11.259Z,9.66
2022-11-15T19:31:43.105Z,9.66
2022-11-15T19:34:14.714Z,9.62
2022-11-15T19:36:46.965Z,9.55
2022-11-15T19:39:18.638Z,9.56
2022-11-15T19:41:50.326Z,9.62
2022-11-15T19:44:22.927Z,9.67
2022-11-15T19:46:54.450Z,9.73
2022-11-15T19:49:26.128Z,9.78
2022-11-15T19:51:57.781Z,9.84
2022-11-15T19:54:29.478Z,9.90
2022-11-15T19:57:01.053Z,9.94
2022-11-15T19:59:32.573Z,9.96
2022-11-15T20:02:04.174Z,9.93
2022-11-15T20:04:35.719Z,9.84
2022-11-15T20:07:07.232Z,9.71
2022-11-15T20:09:38.971Z,9.60
2022-11-15T20:12:10.759Z,9.53
2022-11-15T20:14:42.253Z,9.54
2022-11-15T20:17:14.263Z,9.57
2022-11-15T20:19:45.968Z,9.63
2022-11-15T20:22:17.784Z,9.63
2022-11-15T20:24:49.294Z,9.62
2022-11-15T20:27:20.837Z,9.63
2022-11-15T20:29:54.590Z,9.68
2022-11-15T20:32:31.189Z,9.74
2022-11-15T20:35:02.874Z,9.77
2022-11-15T20:37:40.146Z,9.78
2022-11-15T20:40:13.962Z,9.77
2022-11-15T20:42:45.511Z,9.75
2022-11-15T20:45:18.640Z,9.72
2022-11-15T20:47:50.204Z,9.62
2022-11-15T20:50:41.530Z,9.61
2022-11-15T20:53:16.351Z,9.63
2022-11-15T20:55:50.976Z,9.69
2022-11-15T20:58:22.518Z,9.77
2022-11-15T21:00:57.882Z,9.84
2022-11-15T21:03:29.669Z,9.93
2022-11-15T21:06:01.540Z,10.01
2022-11-15T21:08:53.478Z,10.05
2022-11-15T21:11:44.161Z,10.06
2022-11-15T21:14:15.675Z,10.03
2022-11-15T21:16:47.191Z,9.97
2022-11-15T21:19:22.639Z,9.93
2022-11-15T21:21:57.510Z,9.90
2022-11-15T21:24:29.846Z,9.85
2022-11-15T21:27:02.007Z,9.82
2022-11-15T21:29:39.713Z,9.79
2022-11-15T21:32:11.676Z,9.78
2022-11-15T21:34:43.279Z,9.79
2022-11-15T21:37:15.837Z,9.82
2022-11-15T21:39:47.406Z,9.87
2022-11-15T21:42:18.974Z,9.90
2022-11-15T21:44:50.739Z,9.91
2022-11-15T21:47:22.277Z,9.89
2022-11-15T21:49:53.894Z,9.93
2022-11-15T21:52:25.438Z,9.96
2022-11-15T21:54:57.049Z,9.94
2022-11-15T21:57:30.284Z,9.87
2022-11-15T22:00:19.944Z,9.85
2022-11-15T22:02:51.442Z,9.78
2022-11-15T22:08:12.261Z,9.58
2022-11-15T22:10:47.287Z,9.52
2022-11-15T22:13:19.072Z,9.49
2022-11-15T22:15:53.553Z,9.48
2022-11-15T22:18:26.876Z,9.50
2022-11-15T22:21:00.352Z,9.54
2022-11-15T22:23:34.381Z,9.54
2022-11-15T22:26:07.370Z,9.50
2022-11-15T22:28:39.451Z,9.49
2022-11-15T22:31:12.447Z,9.50
2022-11-15T22:33:44.288Z,9.50
2022-11-15T22:36:16.262Z,9.49
2022-11-15T22:38:48.124Z,9.47
2022-11-15T22:41:20.087Z,9.48
2022-11-15T22:43:52.491Z,9.50
2022-11-15T22:46:24.536Z,9.53
2022-11-15T22:49:00.798Z,9.55
2022-11-15T22:51:35.103Z,9.55
2022-11-15T22:54:07.722Z,9.57
2022-11-15T22:56:39.546Z,9.58
2022-11-15T22:59:11.272Z,9.60
2022-11-15T23:01:43.190Z,9.60
2022-11-15T23:04:15.728Z,9.64
2022-11-15T23:06:47.699Z,9.67
2022-11-15T23:09:19.791Z,9.69
2022-11-15T23:12:09.280Z,9.70
2022-11-15T23:14:41.134Z,9.69
2022-11-15T23:17:12.881Z,9.69
2022-11-15T23:19:44.762Z,9.72
2022-11-15T23:25:24.010Z,9.91
2022-11-15T23:27:55.798Z,10.01
2022-11-15T23:30:45.020Z,10.08
2022-11-15T23:33:35.632Z,10.14
2022-11-15T23:36:08.936Z,10.17
2022-11-15T23:38:40.876Z,10.17
2022-11-15T23:41:12.765Z,10.16
2022-11-15T23:43:44.627Z,10.14
2022-11-15T23:46:16.487Z,10.07
2022-11-15T23:48:48.648Z,10.04
2022-11-15T23:51:20.519Z,10.01
2022-11-15T23:53:52.382Z,9.98
2022-11-15T23:56:24.789Z,9.97
2022-11-15T23:58:56.616Z,9.96
